createdAt,value
2022-11-04T00:00:17.440Z,96880.25
2022-11-04T00:02:44.285Z,96881.66
2022-11-04T00:05:10.897Z,96883.53
2022-11-04T00:07:56.007Z,96896.44
2022-11-04T00:10:42.417Z,96906.47
2022-11-04T00:13:10.587Z,96922.13
2022-11-04T00:15:55.775Z,96931.88
2022-11-04T00:18:22.249Z,96919.44
2022-11-04T00:21:07.369Z,96928.56
2022-11-04T00:23:52.794Z,96923.53
2022-11-04T00:26:38.125Z,96934.53
2022-11-04T00:29:05.261Z,96927.59
2022-11-04T00:31:50.996Z,96931.38
2022-11-04T00:34:20.079Z,96923.19
2022-11-04T00:36:46.583Z,96924.28
2022-11-04T00:39:13.025Z,96914.22
2022-11-04T00:41:39.741Z,96919.56
2022-11-04T00:44:07.248Z,96917.97
2022-11-04T00:46:34.043Z,96918.63
2022-11-04T00:49:03.742Z,96920.00
2022-11-04T00:51:31.360Z,96928.81
2022-11-04T00:54:01.010Z,96937.94
2022-11-04T00:56:27.862Z,96945.44
2022-11-04T00:58:54.688Z,96944.66
2022-11-04T01:01:21.685Z,96944.19
2022-11-04T01:03:50.087Z,96926.09
2022-11-04T01:06:17.316Z,96911.19
2022-11-04T01:08:45.313Z,96911.50
2022-11-04T01:11:13.184Z,96920.09
2022-11-04T01:13:39.724Z,96927.34
2022-11-04T01:16:08.667Z,96931.09
2022-11-04T01:18:37.892Z,96929.81
2022-11-04T01:21:05.654Z,96941.94
2022-11-04T01:23:33.988Z,96944.41
2022-11-04T01:26:00.450Z,96948.47
2022-11-04T01:28:30.799Z,96953.34
2022-11-04T01:30:58.440Z,96962.44
2022-11-04T01:33:26.254Z,96968.91
2022-11-04T01:35:55.166Z,96969.19
2022-11-04T01:38:23.745Z,96975.63
2022-11-04T01:40:50.209Z,96966.03
2022-11-04T01:43:21.002Z,96974.06
2022-11-04T01:45:50.621Z,96976.22
2022-11-04T01:48:22.517Z,96974.66
2022-11-04T01:50:49.056Z,96988.31
2022-11-04T01:53:23.310Z,96969.91
2022-11-04T01:55:55.979Z,96970.22
2022-11-04T01:58:25.200Z,96970.50
2022-11-04T02:00:52.729Z,96973.47
2022-11-04T02:03:24.006Z,96985.56
2022-11-04T02:05:54.856Z,96993.09
2022-11-04T02:08:21.334Z,97004.03
2022-11-04T02:10:54.669Z,97002.78
2022-11-04T02:13:24.311Z,97009.50
2022-11-04T02:16:08.712Z,97017.81
2022-11-04T02:18:49.743Z,97014.19
2022-11-04T02:21:38.464Z,97025.63
2022-11-04T02:24:19.973Z,97034.25
2022-11-04T02:27:14.262Z,97044.75
2022-11-04T02:30:18.689Z,97042.97
2022-11-04T02:33:19.964Z,97038.72
2022-11-04T02:36:00.019Z,97019.88
2022-11-04T02:38:36.665Z,97006.03
2022-11-04T02:41:18.553Z,97015.44
2022-11-04T02:44:39.887Z,97005.34
2022-11-04T02:47:08.660Z,97001.13
2022-11-04T02:49:41.405Z,97008.13
2022-11-04T02:52:25.992Z,97019.59
2022-11-04T02:54:57.633Z,97017.53
2022-11-04T02:57:31.316Z,97021.28
2022-11-04T03:00:09.846Z,97018.13
2022-11-04T03:02:46.388Z,97019.50
2022-11-04T03:05:14.564Z,97027.22
2022-11-04T03:07:43.510Z,97028.59
2022-11-04T03:10:16.204Z,97026.06
2022-11-04T03:13:04.844Z,97030.78
2022-11-04T03:15:32.679Z,97044.13
2022-11-04T03:18:23.431Z,97054.28
2022-11-04T03:20:50.291Z,97054.59
2022-11-04T03:23:18.573Z,97074.38
2022-11-04T03:25:48.216Z,97079.97
2022-11-04T03:28:33.120Z,97077.63
2022-11-04T03:31:04.199Z,97088.88
2022-11-04T03:33:44.431Z,97088.69
2022-11-04T03:36:13.034Z,97085.22
2022-11-04T03:38:39.804Z,97087.41
2022-11-04T03:41:10.027Z,97095.69
2022-11-04T03:43:38.254Z,97096.75
2022-11-04T03:46:04.721Z,97090.13
2022-11-04T03:48:34.569Z,97096.56
2022-11-04T03:51:01.277Z,97098.72
2022-11-04T03:53:30.756Z,97110.16
2022-11-04T03:56:29.802Z,97110.00
2022-11-04T03:59:23.882Z,97115.31
2022-11-04T04:01:56.242Z,97117.19
2022-11-04T04:04:29.676Z,97119.34
2022-11-04T04:07:02.313Z,97115.91
2022-11-04T04:09:36.629Z,97117.78
2022-11-04T04:12:41.884Z,97134.09
2022-11-04T04:15:12.749Z,97129.81
2022-11-04T04:18:06.178Z,97134.66
2022-11-04T04:20:32.992Z,97124.31
2022-11-04T04:23:06.168Z,97129.13
2022-11-04T04:25:50.764Z,97133.38
2022-11-04T04:28:18.804Z,97147.00
2022-11-04T04:30:46.584Z,97148.88
2022-11-04T04:33:15.156Z,97146.50
2022-11-04T04:35:49.787Z,97146.78
2022-11-04T04:38:50.026Z,97150.84
2022-11-04T04:41:41.867Z,97143.13
2022-11-04T04:44:57.904Z,97152.19
2022-11-04T04:47:24.695Z,97153.59
2022-11-04T04:49:51.001Z,97152.50
2022-11-04T04:52:19.153Z,97165.03
2022-11-04T04:54:45.868Z,97173.31
2022-11-04T04:57:13.175Z,97180.53
2022-11-04T04:59:39.657Z,97173.91
2022-11-04T05:02:08.791Z,97188.03
2022-11-04T05:04:35.362Z,97193.66
2022-11-04T05:07:11.761Z,97201.13
2022-11-04T05:09:39.337Z,97201.44
2022-11-04T05:12:09.935Z,97207.03
2022-11-04T05:14:38.460Z,97203.88
2022-11-04T05:17:04.898Z,97212.97
2022-11-04T05:19:31.490Z,97208.13
2022-11-04T05:21:59.724Z,97208.59
2022-11-04T05:24:27.908Z,97211.41
2022-11-04T05:26:54.355Z,97209.69
2022-11-04T05:29:20.874Z,97213.31
2022-11-04T05:31:49.206Z,97213.06
2022-11-04T05:34:17.544Z,97210.38
2022-11-04T05:36:44.366Z,97214.13
2022-11-04T05:39:23.836Z,97224.78
2022-11-04T05:41:50.346Z,97242.94
2022-11-04T05:44:16.900Z,97231.84
2022-11-04T05:46:43.956Z,97240.72
2022-11-04T05:49:11.501Z,97228.19
2022-11-04T05:51:37.979Z,97227.09
2022-11-04T05:54:05.449Z,97240.41
2022-11-04T05:56:34.706Z,97225.78
2022-11-04T05:59:01.156Z,97218.59
2022-11-04T06:01:38.909Z,97204.78
2022-11-04T06:04:05.709Z,97229.25
2022-11-04T06:06:34.237Z,97255.88
2022-11-04T06:09:01.189Z,97257.75
2022-11-04T06:11:28.326Z,97265.25
2022-11-04T06:13:55.841Z,97273.53
2022-11-04T06:16:22.483Z,97286.84
2022-11-04T06:18:49.376Z,97289.53
2022-11-04T06:21:24.577Z,97289.78
2022-11-04T06:23:53.630Z,97299.94
2022-11-04T06:26:25.118Z,97306.84
2022-11-04T06:28:53.713Z,97314.88
2022-11-04T06:31:20.765Z,97310.66
2022-11-04T06:33:47.656Z,97317.31
2022-11-04T06:36:15.451Z,97318.41
2022-11-04T06:38:42.096Z,97309.91
2022-11-04T06:41:11.565Z,97303.00
2022-11-04T06:43:38.020Z,97308.31
2022-11-04T06:46:04.604Z,97312.59
2022-11-04T06:48:31.149Z,97317.63
2022-11-04T06:51:01.873Z,97317.31
2022-11-04T06:53:30.282Z,97323.97
2022-11-04T06:56:03.833Z,97319.41
2022-11-04T06:58:30.392Z,97325.00
2022-11-04T07:00:56.907Z,97321.56
2022-11-04T07:03:23.578Z,97321.00
2022-11-04T07:05:52.324Z,97317.53
2022-11-04T07:08:19.524Z,97318.63
2022-11-04T07:10:52.375Z,97317.06
2022-11-04T07:13:19.158Z,97318.91
2022-11-04T07:15:45.613Z,97323.66
2022-11-04T07:18:12.195Z,97317.31
2022-11-04T07:20:40.215Z,97321.84
2022-11-04T07:23:06.694Z,97316.47
2022-11-04T07:25:33.154Z,97323.13
2022-11-04T07:28:02.383Z,97314.34
2022-11-04T07:30:29.189Z,97321.56
2022-11-04T07:32:58.684Z,97322.34
2022-11-04T07:35:25.137Z,97323.38
2022-11-04T07:37:51.571Z,97326.03
2022-11-04T07:40:18.087Z,97337.53
2022-11-04T07:42:44.628Z,97343.66
2022-11-04T07:45:13.757Z,97342.84
2022-11-04T07:47:40.221Z,97343.38
2022-11-04T07:50:11.011Z,97348.50
2022-11-04T07:52:37.803Z,97347.47
2022-11-04T07:55:06.138Z,97351.22
2022-11-04T07:57:33.004Z,97362.09
2022-11-04T08:00:00.791Z,97368.50
2022-11-04T08:02:32.503Z,97367.19
2022-11-04T08:05:01.755Z,97379.72
2022-11-04T08:07:28.528Z,97375.53
2022-11-04T08:09:54.995Z,97380.06
2022-11-04T08:12:23.753Z,97384.31
2022-11-04T08:15:03.263Z,97386.97
2022-11-04T08:17:35.020Z,97370.69
2022-11-04T08:20:01.543Z,97378.94
2022-11-04T08:22:32.857Z,97378.41
2022-11-04T08:25:01.658Z,97384.56
2022-11-04T08:27:36.253Z,97385.66
2022-11-04T08:30:05.736Z,97386.19
2022-11-04T08:32:32.186Z,97386.44
2022-11-04T08:34:58.867Z,97383.78
2022-11-04T08:37:25.656Z,97384.56
2022-11-04T08:39:55.889Z,97389.91
2022-11-04T08:42:22.334Z,97388.84
2022-11-04T08:44:53.028Z,97391.50
2022-11-04T08:47:20.917Z,97398.72
2022-11-04T08:49:48.568Z,97391.50
2022-11-04T08:52:14.997Z,97385.41
2022-11-04T08:54:42.033Z,97385.88
2022-11-04T08:57:09.230Z,97388.31
2022-11-04T08:59:39.455Z,97381.84
2022-11-04T09:02:06.012Z,97389.53
2022-11-04T09:04:32.531Z,97390.53
2022-11-04T09:07:03.845Z,97390.81
2022-11-04T09:09:33.853Z,97405.94
2022-11-04T09:12:00.296Z,97408.94
2022-11-04T09:14:26.763Z,97411.31
2022-11-04T09:16:54.305Z,97410.34
2022-11-04T09:19:21.114Z,97413.06
2022-11-04T09:21:48.007Z,97416.81
2022-11-04T09:24:14.531Z,97414.69
2022-11-04T09:26:42.320Z,97419.66
2022-11-04T09:29:10.575Z,97412.53
2022-11-04T09:31:37.096Z,97412.81
2022-11-04T09:34:03.849Z,97418.69
2022-11-04T09:36:30.644Z,97424.50
2022-11-04T09:38:59.692Z,97425.84
2022-11-04T09:41:57.249Z,97418.63
2022-11-04T09:45:19.352Z,97419.66
2022-11-04T09:47:35.285Z,97415.06
2022-11-04T09:50:01.805Z,97417.44
2022-11-04T09:52:31.866Z,97410.47
2022-11-04T09:55:12.827Z,97412.84
2022-11-04T09:57:40.304Z,97405.75
2022-11-04T10:00:08.300Z,97401.66
2022-11-04T10:02:56.684Z,97394.31
2022-11-04T10:05:59.097Z,97410.41
2022-11-04T10:08:48.274Z,97405.00
2022-11-04T10:11:24.926Z,97412.19
2022-11-04T10:14:10.574Z,97430.09
2022-11-04T10:17:06.695Z,97432.28
2022-11-04T10:20:14.891Z,97444.50
2022-11-04T10:23:14.389Z,97438.16
2022-11-04T10:25:58.890Z,97442.19
2022-11-04T10:28:32.416Z,97451.19
2022-11-04T10:31:00.507Z,97456.31
2022-11-04T10:33:38.924Z,97462.72
2022-11-04T10:36:09.396Z,97464.81
2022-11-04T10:38:49.131Z,97468.56
2022-11-04T10:41:37.854Z,97466.69
2022-11-04T10:44:35.328Z,97475.19
2022-11-04T10:47:28.006Z,97473.88
2022-11-04T10:50:28.408Z,97486.13
2022-11-04T10:53:23.702Z,97475.75
2022-11-04T10:56:18.434Z,97472.28
2022-11-04T10:58:47.116Z,97461.88
2022-11-04T11:01:32.342Z,97464.53
2022-11-04T11:04:00.012Z,97460.00
2022-11-04T11:06:31.427Z,97465.69
2022-11-04T11:09:26.077Z,97469.28
2022-11-04T11:11:54.504Z,97467.06
2022-11-04T11:14:30.413Z,97457.19
2022-11-04T11:16:57.535Z,97459.06
2022-11-04T11:19:30.601Z,97462.00
2022-11-04T11:21:57.189Z,97459.94
2022-11-04T11:24:28.265Z,97464.16
2022-11-04T11:27:00.278Z,97458.47
2022-11-04T11:29:28.059Z,97451.25
2022-11-04T11:31:55.323Z,97451.31
2022-11-04T11:34:28.306Z,97440.97
2022-11-04T11:36:55.693Z,97446.88
2022-11-04T11:39:31.965Z,97437.69
2022-11-04T11:42:11.566Z,97437.56
2022-11-04T11:44:46.814Z,97435.59
2022-11-04T11:47:31.487Z,97440.31
2022-11-04T11:50:24.282Z,97435.06
2022-11-04T11:52:52.790Z,97431.75
2022-11-04T11:55:37.726Z,97430.59
2022-11-04T12:01:26.841Z,97433.59
2022-11-04T12:10:02.208Z,97434.91
2022-11-04T12:12:57.695Z,97446.88
2022-11-04T12:16:00.505Z,97455.31
2022-11-04T12:19:18.904Z,97445.19
2022-11-04T12:22:20.748Z,97459.41
2022-11-04T12:25:08.216Z,97467.00
2022-11-04T12:27:59.347Z,97465.50
2022-11-04T12:30:32.562Z,97465.13
2022-11-04T12:33:06.935Z,97460.94
2022-11-04T12:35:54.785Z,97469.44
2022-11-04T12:38:32.173Z,97475.31
2022-11-04T12:44:21.162Z,97477.38
2022-11-04T12:46:59.618Z,97477.38
2022-11-04T12:49:46.951Z,97486.16
2022-11-04T12:52:36.144Z,97477.19
2022-11-04T12:55:25.472Z,97489.22
2022-11-04T12:58:17.926Z,97493.75
2022-11-04T13:00:47.309Z,97491.72
2022-11-04T13:03:21.818Z,97483.81
2022-11-04T13:05:54.464Z,97491.00
2022-11-04T13:08:50.859Z,97487.88
2022-11-04T13:11:36.241Z,97490.84
2022-11-04T13:14:23.865Z,97493.53
2022-11-04T13:16:54.228Z,97498.56
2022-11-04T13:19:39.309Z,97500.72
2022-11-04T13:22:13.058Z,97505.00
2022-11-04T13:24:40.453Z,97510.91
2022-11-04T13:27:17.532Z,97516.84
2022-11-04T13:29:47.169Z,97510.97
2022-11-04T13:32:31.511Z,97518.78
2022-11-04T13:35:00.924Z,97520.91
2022-11-04T13:37:32.164Z,97525.75
2022-11-04T13:40:17.393Z,97519.91
2022-11-04T13:43:31.348Z,97529.75
2022-11-04T13:45:58.342Z,97531.94
2022-11-04T13:48:30.773Z,97528.25
2022-11-04T13:51:08.939Z,97530.13
2022-11-04T13:53:50.417Z,97534.13
2022-11-04T13:56:35.331Z,97538.19
2022-11-04T13:59:16.852Z,97533.94
2022-11-04T14:01:43.525Z,97541.41
2022-11-04T14:04:13.645Z,97544.84
2022-11-04T14:07:08.508Z,97551.56
2022-11-04T14:09:37.454Z,97551.81
2022-11-04T14:12:19.471Z,97555.56
2022-11-04T14:14:53.915Z,97553.59
2022-11-04T14:17:35.316Z,97560.53
2022-11-04T14:20:24.126Z,97563.97
2022-11-04T14:22:54.605Z,97561.31
2022-11-04T14:25:32.970Z,97567.50
2022-11-04T14:28:03.452Z,97577.06
2022-11-04T14:30:38.973Z,97576.28
2022-11-04T14:33:07.135Z,97579.25
2022-11-04T14:35:34.050Z,97582.47
2022-11-04T14:38:05.862Z,97585.91
2022-11-04T14:40:50.445Z,97588.09
2022-11-04T14:43:35.939Z,97594.47
2022-11-04T14:46:02.803Z,97595.00
2022-11-04T14:48:29.392Z,97602.75
2022-11-04T14:50:56.201Z,97607.84
2022-11-04T14:53:34.384Z,97600.44
2022-11-04T14:56:38.900Z,97609.47
2022-11-04T14:59:07.867Z,97600.19
2022-11-04T15:01:36.650Z,97607.66
2022-11-04T15:04:24.774Z,97605.28
2022-11-04T15:06:59.536Z,97610.91
2022-11-04T15:09:29.866Z,97609.56
2022-11-04T15:12:28.540Z,97617.06
2022-11-04T15:14:55.573Z,97620.00
2022-11-04T15:17:22.696Z,97622.94
2022-11-04T15:19:50.990Z,97634.69
2022-11-04T15:22:17.464Z,97637.63
2022-11-04T15:24:43.932Z,97630.47
2022-11-04T15:27:13.458Z,97636.31
2022-11-04T15:29:40.131Z,97634.44
2022-11-04T15:32:07.660Z,97640.06
2022-11-04T15:34:34.150Z,97639.53
2022-11-04T15:37:05.364Z,97638.50
2022-11-04T15:39:36.291Z,97640.09
2022-11-04T15:42:22.564Z,97642.97
2022-11-04T15:44:52.159Z,97644.84
2022-11-04T15:47:18.465Z,97651.56
2022-11-04T15:49:45.277Z,97650.75
2022-11-04T15:52:13.148Z,97657.13
2022-11-04T15:54:43.519Z,97651.06
2022-11-04T15:57:18.158Z,97664.13
2022-11-04T16:00:17.499Z,97664.13
2022-11-04T16:02:48.189Z,97663.28
2022-11-04T16:05:14.866Z,97668.91
2022-11-04T16:07:51.246Z,97668.13
2022-11-04T16:10:31.805Z,97676.38
2022-11-04T16:12:59.650Z,97682.22
2022-11-04T16:15:35.626Z,97684.88
2022-11-04T16:18:02.324Z,97687.53
2022-11-04T16:20:30.872Z,97688.91
2022-11-04T16:23:00.165Z,97685.72
2022-11-04T16:25:29.639Z,97692.13
2022-11-04T16:27:56.318Z,97690.25
2022-11-04T16:30:23.468Z,97684.13
2022-11-04T16:32:50.514Z,97689.75
2022-11-04T16:35:22.036Z,97695.06
2022-11-04T16:37:49.162Z,97696.09
2022-11-04T16:40:15.911Z,97701.72
2022-11-04T16:42:42.838Z,97708.91
2022-11-04T16:45:26.900Z,97710.50
2022-11-04T16:47:53.649Z,97708.91
2022-11-04T16:50:20.135Z,97712.38
2022-11-04T16:52:47.281Z,97710.50
2022-11-04T16:55:13.928Z,97723.56
2022-11-04T16:57:40.729Z,97714.25
2022-11-04T17:00:07.858Z,97716.91
2022-11-04T17:02:40.961Z,97721.44
2022-11-04T17:05:08.170Z,97729.13
2022-11-04T17:07:52.127Z,97726.75
2022-11-04T17:10:26.996Z,97732.38
2022-11-04T17:12:53.503Z,97735.53
2022-11-04T17:15:19.973Z,97743.81
2022-11-04T17:17:46.461Z,97760.00
2022-11-04T17:20:14.415Z,97765.88
2022-11-04T17:22:40.993Z,97753.91
2022-11-04T17:25:19.202Z,97759.47
2022-11-04T17:27:45.703Z,97767.47
2022-11-04T17:30:14.033Z,97767.19
2022-11-04T17:32:41.382Z,97770.94
2022-11-04T17:35:08.496Z,97775.19
2022-11-04T17:37:34.944Z,97774.66
2022-11-04T17:40:01.444Z,97778.13
2022-11-04T17:42:46.839Z,97774.91
2022-11-04T17:45:13.313Z,97774.13
2022-11-04T17:47:39.849Z,97772.50
2022-11-04T17:50:07.923Z,97768.53
2022-11-04T17:52:35.177Z,97778.41
2022-11-04T17:55:01.662Z,97782.13
2022-11-04T17:57:28.112Z,97783.72
2022-11-04T17:59:55.176Z,97790.94
2022-11-04T18:02:22.139Z,97786.09
2022-11-04T18:04:48.667Z,97792.78
2022-11-04T18:07:15.131Z,97796.75
2022-11-04T18:09:42.775Z,97802.09
2022-11-04T18:12:27.628Z,97802.88
2022-11-04T18:14:54.070Z,97796.75
2022-11-04T18:17:24.520Z,97806.63
2022-11-04T18:19:52.185Z,97808.50
2022-11-04T18:22:18.639Z,97805.00
2022-11-04T18:24:45.520Z,97801.28
2022-11-04T18:27:12.323Z,97792.00
2022-11-04T18:29:39.084Z,97802.41
2022-11-04T18:32:05.684Z,97809.59
2022-11-04T18:34:32.250Z,97809.84
2022-11-04T18:37:00.143Z,97811.44
2022-11-04T18:39:27.193Z,97810.09
2022-11-04T18:41:53.643Z,97810.59
2022-11-04T18:44:21.376Z,97812.47
2022-11-04T18:46:48.253Z,97818.09
2022-11-04T18:49:15.236Z,97819.97
2022-11-04T18:51:41.866Z,97819.16
2022-11-04T18:54:08.457Z,97818.38
2022-11-04T18:56:34.972Z,97819.16
2022-11-04T18:59:01.429Z,97819.16
2022-11-04T19:01:34.198Z,97825.56
2022-11-04T19:04:00.853Z,97830.59
2022-11-04T19:06:32.283Z,97835.13
2022-11-04T19:09:05.019Z,97841.53
2022-11-04T19:11:36.817Z,97844.19
2022-11-04T19:14:09.371Z,97841.53
2022-11-04T19:16:36.242Z,97847.13
2022-11-04T19:19:06.389Z,97842.06
2022-11-04T19:21:32.876Z,97860.72
2022-11-04T19:24:00.063Z,97862.03
2022-11-04T19:26:28.396Z,97867.66
2022-11-04T19:28:55.415Z,97863.38
2022-11-04T19:31:23.871Z,97872.44
2022-11-04T19:33:50.472Z,97877.78
2022-11-04T19:36:17.901Z,97877.50
2022-11-04T19:38:44.347Z,97876.69
2022-11-04T19:41:36.581Z,97884.69
2022-11-04T19:44:05.514Z,97876.94
2022-11-04T19:46:32.748Z,97883.09
2022-11-04T19:48:59.252Z,97887.34
2022-11-04T19:51:31.574Z,97889.22
2022-11-04T19:53:58.535Z,97889.22
2022-11-04T19:56:25.105Z,97892.13
2022-11-04T19:58:51.610Z,97891.09
2022-11-04T20:01:18.623Z,97889.22
2022-11-04T20:03:45.593Z,97895.59
2022-11-04T20:06:13.288Z,97906.25
2022-11-04T20:08:40.540Z,97910.25
2022-11-04T20:11:07.401Z,97909.97
2022-11-04T20:13:48.892Z,97899.31
2022-11-04T20:16:25.392Z,97903.06
2022-11-04T20:19:00.680Z,97909.19
2022-11-04T20:21:29.250Z,97908.41
2022-11-04T20:23:56.738Z,97916.66
2022-11-04T20:26:24.209Z,97921.97
2022-11-04T20:28:51.411Z,97917.69
2022-11-04T20:31:19.434Z,97918.53
2022-11-04T20:33:46.552Z,97928.34
2022-11-04T20:36:13.176Z,97935.53
2022-11-04T20:38:39.643Z,97934.75
2022-11-04T20:41:07.438Z,97928.91
2022-11-04T20:43:35.034Z,97932.63
2022-11-04T20:46:06.079Z,97936.34
2022-11-04T20:48:32.715Z,97939.00
2022-11-04T20:51:02.410Z,97943.00
2022-11-04T20:53:29.610Z,97949.13
2022-11-04T20:55:56.285Z,97945.94
2022-11-04T20:58:23.964Z,97957.31
2022-11-04T21:00:50.415Z,97959.16
2022-11-04T21:03:16.880Z,97960.16
2022-11-04T21:05:43.971Z,97960.88
2022-11-04T21:08:10.590Z,97974.72
2022-11-04T21:10:37.230Z,97968.78
2022-11-04T21:13:03.824Z,97964.75
2022-11-04T21:15:42.149Z,97970.31
2022-11-04T21:18:09.441Z,97977.97
2022-11-04T21:20:39.606Z,97979.56
2022-11-04T21:23:06.486Z,97986.47
2022-11-04T21:25:45.233Z,97991.00
2022-11-04T21:28:12.068Z,97991.78
2022-11-04T21:33:06.109Z,97992.00
2022-11-04T21:35:38.799Z,97995.72
2022-11-04T21:38:06.169Z,97999.69
2022-11-04T21:40:33.090Z,98002.91
2022-11-04T21:42:59.543Z,98011.41
2022-11-04T21:45:26.044Z,98017.00
2022-11-04T21:47:52.512Z,98012.16
2022-11-04T21:50:18.987Z,98009.25
2022-11-04T21:52:45.546Z,98007.88
2022-11-04T21:55:12.271Z,98014.78
2022-11-04T21:57:38.961Z,98019.31
2022-11-04T22:00:06.711Z,98022.25
2022-11-04T22:02:39.044Z,98019.59
2022-11-04T22:05:06.289Z,98019.84
2022-11-04T22:07:51.580Z,98018.25
2022-11-04T22:10:18.113Z,98016.59
2022-11-04T22:12:50.080Z,98021.44
2022-11-04T22:15:36.773Z,98019.78
2022-11-04T22:18:03.293Z,98028.88
2022-11-04T22:20:29.740Z,98024.03
2022-11-04T22:22:56.549Z,98024.03
2022-11-04T22:25:23.034Z,98022.16
2022-11-04T22:27:49.485Z,98028.31
2022-11-04T22:30:15.929Z,98029.91
2022-11-04T22:32:42.387Z,98031.50
2022-11-04T22:35:08.997Z,98032.31
2022-11-04T22:37:35.463Z,98032.31
2022-11-04T22:40:01.943Z,98027.75
2022-11-04T22:42:28.506Z,98042.69
2022-11-04T22:44:55.388Z,98041.63
2022-11-04T22:47:21.846Z,98034.69
2022-11-04T22:49:48.349Z,98034.69
2022-11-04T22:52:15.189Z,98039.22
2022-11-04T22:54:41.637Z,98044.28
2022-11-04T22:57:08.194Z,98045.66
2022-11-04T22:59:34.640Z,98050.72
2022-11-04T23:02:01.154Z,98055.25
2022-11-04T23:04:27.669Z,98046.44
2022-11-04T23:06:54.124Z,98055.53
2022-11-04T23:09:20.571Z,98046.44
2022-11-04T23:12:06.135Z,98052.06
2022-11-04T23:14:50.980Z,98060.88
2022-11-04T23:17:37.242Z,98061.13
2022-11-04T23:20:06.672Z,98068.41
2022-11-04T23:22:51.915Z,98061.38
2022-11-04T23:25:18.501Z,98069.69
2022-11-04T23:28:10.972Z,98072.38
2022-11-04T23:30:43.401Z,98080.38
2022-11-04T23:33:11.427Z,98075.53
2022-11-04T23:35:58.799Z,98072.66
2022-11-04T23:38:25.351Z,98080.13
2022-11-04T23:41:12.609Z,98084.16
2022-11-04T23:43:39.419Z,98084.41
2022-11-04T23:46:24.621Z,98082.84
2022-11-04T23:49:09.522Z,98096.44
2022-11-04T23:51:54.676Z,98093.22
2022-11-04T23:54:39.585Z,98088.47
2022-11-04T23:57:31.816Z,98094.84
